createdAt,value
2023-03-04T00:00:01.847Z,94
2023-03-04T00:00:32.874Z,94
2023-03-04T00:01:05.170Z,94
2023-03-04T00:01:36.673Z,94
2023-03-04T00:02:08.212Z,94
2023-03-04T00:02:36.971Z,94
2023-03-04T00:02:56.335Z,94
2023-03-04T00:03:28.551Z,94
2023-03-04T00:04:00.837Z,94
2023-03-04T00:04:32.576Z,94
2023-03-04T00:05:06.128Z,94
2023-03-04T00:05:36.932Z,94
2023-03-04T00:06:08.316Z,94
2023-03-04T00:06:36.594Z,94
2023-03-04T00:06:56.497Z,94
2023-03-04T00:07:28.505Z,94
2023-03-04T00:08:00.580Z,94
2023-03-04T00:08:32.932Z,94
2023-03-04T00:09:04.537Z,94
2023-03-04T00:09:36.313Z,94
2023-03-04T00:10:08.975Z,94
2023-03-04T00:10:36.561Z,94
2023-03-04T00:10:56.865Z,94
2023-03-04T00:11:28.466Z,94
2023-03-04T00:12:00.269Z,94
2023-03-04T00:12:32.476Z,94
2023-03-04T00:13:04.257Z,94
2023-03-04T00:13:36.439Z,94
2023-03-04T00:14:08.182Z,94
2023-03-04T00:14:36.418Z,94
2023-03-04T00:14:56.359Z,94
2023-03-04T00:15:29.172Z,94
2023-03-04T00:16:00.292Z,94
2023-03-04T00:16:32.642Z,94
2023-03-04T00:17:04.327Z,94
2023-03-04T00:17:36.209Z,94
2023-03-04T00:18:08.204Z,94
2023-03-04T00:18:36.512Z,94
2023-03-04T00:18:56.297Z,94
2023-03-04T00:19:28.428Z,94
2023-03-04T00:20:00.716Z,94
2023-03-04T00:20:32.531Z,94
2023-03-04T00:21:04.274Z,94
2023-03-04T00:21:36.296Z,94
2023-03-04T00:22:09.435Z,94
2023-03-04T00:22:36.426Z,94
2023-03-04T00:22:56.357Z,94
2023-03-04T00:23:28.352Z,94
2023-03-04T00:24:00.326Z,94
2023-03-04T00:24:32.718Z,94
2023-03-04T00:25:05.506Z,94
2023-03-04T00:25:37.048Z,94
2023-03-04T00:26:08.133Z,94
2023-03-04T00:26:36.595Z,94
2023-03-04T00:26:56.346Z,94
2023-03-04T00:27:28.762Z,94
2023-03-04T00:28:00.343Z,94
2023-03-04T00:28:32.482Z,94
2023-03-04T00:29:04.397Z,94
2023-03-04T00:29:36.286Z,94
2023-03-04T00:30:08.931Z,94
2023-03-04T00:30:36.533Z,94
2023-03-04T00:30:56.884Z,94
2023-03-04T00:31:28.591Z,94
2023-03-04T00:32:00.392Z,94
2023-03-04T00:32:32.517Z,94
2023-03-04T00:33:04.413Z,94
2023-03-04T00:33:36.324Z,94
2023-03-04T00:34:08.569Z,94
2023-03-04T00:34:38.073Z,94
2023-03-04T00:34:56.294Z,94
2023-03-04T00:35:28.830Z,94
2023-03-04T00:36:00.220Z,94
2023-03-04T00:36:32.778Z,94
2023-03-04T00:37:04.466Z,94
2023-03-04T00:37:36.329Z,94
2023-03-04T00:38:08.314Z,94
2023-03-04T00:38:36.545Z,94
2023-03-04T00:38:56.355Z,94
2023-03-04T00:39:28.636Z,94
2023-03-04T00:40:00.666Z,94
2023-03-04T00:40:32.724Z,94
2023-03-04T00:41:04.339Z,94
2023-03-04T00:41:36.309Z,94
2023-03-04T00:42:08.217Z,94
2023-03-04T00:42:36.473Z,94
2023-03-04T00:42:56.398Z,94
2023-03-04T00:43:28.661Z,94
2023-03-04T00:44:00.255Z,94
2023-03-04T00:44:32.718Z,94
2023-03-04T00:45:06.188Z,94
2023-03-04T00:45:36.669Z,94
2023-03-04T00:46:09.051Z,94
2023-03-04T00:46:36.504Z,94
2023-03-04T00:46:56.394Z,94
2023-03-04T00:47:28.406Z,94
2023-03-04T00:48:00.389Z,94
2023-03-04T00:48:32.566Z,94
2023-03-04T00:49:04.412Z,94
2023-03-04T00:49:36.195Z,94
2023-03-04T00:50:08.599Z,94
2023-03-04T00:50:36.516Z,94
2023-03-04T00:50:56.845Z,94
2023-03-04T00:51:28.373Z,94
2023-03-04T00:52:00.275Z,94
2023-03-04T00:52:32.562Z,94
2023-03-04T00:53:04.318Z,94
2023-03-04T00:53:36.996Z,94
2023-03-04T00:54:08.213Z,94
2023-03-04T00:54:36.497Z,94
2023-03-04T00:54:56.762Z,94
2023-03-04T00:55:29.011Z,94
2023-03-04T00:56:00.543Z,94
2023-03-04T00:56:32.818Z,94
2023-03-04T00:57:04.359Z,94
2023-03-04T00:57:36.468Z,94
2023-03-04T00:58:08.356Z,94
2023-03-04T00:58:36.717Z,94
2023-03-04T00:58:56.392Z,94
2023-03-04T00:59:28.408Z,94
2023-03-04T01:00:03.033Z,94
2023-03-04T01:00:32.740Z,94
2023-03-04T01:01:05.257Z,94
2023-03-04T01:01:36.443Z,94
2023-03-04T01:02:08.313Z,94
2023-03-04T01:02:36.714Z,94
2023-03-04T01:02:56.496Z,94
2023-03-04T01:03:28.548Z,94
2023-03-04T01:04:00.748Z,94
2023-03-04T01:04:32.578Z,94
2023-03-04T01:05:05.619Z,94
2023-03-04T01:05:36.191Z,94
2023-03-04T01:06:08.323Z,94
2023-03-04T01:06:36.785Z,94
2023-03-04T01:06:56.209Z,94
2023-03-04T01:07:28.573Z,94
2023-03-04T01:08:00.534Z,94
2023-03-04T01:08:32.756Z,94
2023-03-04T01:09:04.628Z,94
2023-03-04T01:09:36.203Z,94
2023-03-04T01:10:08.883Z,94
2023-03-04T01:10:37.265Z,94
2023-03-04T01:10:56.912Z,94
2023-03-04T01:11:28.610Z,94
2023-03-04T01:12:00.357Z,94
2023-03-04T01:12:32.510Z,94
2023-03-04T01:13:04.870Z,94
2023-03-04T01:13:36.771Z,94
2023-03-04T01:14:08.272Z,94
2023-03-04T01:14:36.472Z,94
2023-03-04T01:14:56.304Z,94
2023-03-04T01:15:29.304Z,94
2023-03-04T01:16:00.382Z,94
2023-03-04T01:16:32.917Z,94
2023-03-04T01:17:04.384Z,94
2023-03-04T01:17:36.379Z,94
2023-03-04T01:18:09.268Z,94
2023-03-04T01:18:36.618Z,94
2023-03-04T01:18:56.352Z,94
2023-03-04T01:19:28.367Z,94
2023-03-04T01:20:00.866Z,94
2023-03-04T01:20:33.228Z,94
2023-03-04T01:21:04.477Z,94
2023-03-04T01:21:36.309Z,94
2023-03-04T01:22:08.853Z,94
2023-03-04T01:22:36.658Z,94
2023-03-04T01:22:56.465Z,94
2023-03-04T01:23:28.456Z,94
2023-03-04T01:24:00.391Z,94
2023-03-04T01:24:32.669Z,94
2023-03-04T01:25:05.921Z,94
2023-03-04T01:25:36.344Z,94
2023-03-04T01:26:08.650Z,94
2023-03-04T01:26:36.770Z,94
2023-03-04T01:26:56.624Z,94
2023-03-04T01:27:28.627Z,94
2023-03-04T01:28:00.214Z,94
2023-03-04T01:28:32.502Z,94
2023-03-04T01:29:04.391Z,94
2023-03-04T01:29:36.241Z,94
2023-03-04T01:30:09.240Z,94
2023-03-04T01:30:36.566Z,94
2023-03-04T01:30:57.013Z,94
2023-03-04T01:31:28.437Z,94
2023-03-04T01:32:00.389Z,94
2023-03-04T01:32:32.658Z,94
2023-03-04T01:33:04.595Z,94
2023-03-04T01:33:36.813Z,94
2023-03-04T01:34:08.394Z,94
2023-03-04T01:34:37.381Z,94
2023-03-04T01:34:56.428Z,94
2023-03-04T01:35:28.806Z,94
2023-03-04T01:36:00.433Z,94
2023-03-04T01:36:33.429Z,94
2023-03-04T01:37:04.376Z,94
2023-03-04T01:37:37.025Z,94
2023-03-04T01:38:08.363Z,94
2023-03-04T01:38:36.528Z,94
2023-03-04T01:38:56.243Z,94
2023-03-04T01:39:28.660Z,94
2023-03-04T01:40:00.929Z,94
2023-03-04T01:40:32.681Z,94
2023-03-04T01:41:04.413Z,94
2023-03-04T01:41:36.461Z,94
2023-03-04T01:42:08.287Z,94
2023-03-04T01:42:36.616Z,94
2023-03-04T01:42:56.448Z,94
2023-03-04T01:43:28.576Z,94
2023-03-04T01:44:00.327Z,94
2023-03-04T01:44:32.488Z,94
2023-03-04T01:45:06.239Z,94
2023-03-04T01:45:37.532Z,94
2023-03-04T01:46:08.255Z,94
2023-03-04T01:46:36.647Z,94
2023-03-04T01:46:56.457Z,94
2023-03-04T01:47:28.578Z,94
2023-03-04T01:48:00.736Z,94
2023-03-04T01:48:33.123Z,94
2023-03-04T01:49:05.762Z,94
2023-03-04T01:49:36.423Z,94
2023-03-04T01:50:08.632Z,94
2023-03-04T01:50:36.646Z,94
2023-03-04T01:50:56.893Z,94
2023-03-04T01:51:28.563Z,94
2023-03-04T01:52:01.665Z,94
2023-03-04T01:52:32.626Z,94
2023-03-04T01:53:04.303Z,94
2023-03-04T01:53:36.597Z,94
2023-03-04T01:54:08.240Z,94
2023-03-04T01:54:36.837Z,94
2023-03-04T01:54:56.482Z,94
2023-03-04T01:55:28.816Z,94
2023-03-04T01:56:00.614Z,94
2023-03-04T01:56:33.359Z,94
2023-03-04T01:57:05.675Z,94
2023-03-04T01:57:37.528Z,94
2023-03-04T01:58:08.284Z,94
2023-03-04T01:58:36.824Z,94
2023-03-04T01:58:56.399Z,94
2023-03-04T01:59:28.389Z,94
2023-03-04T02:00:01.325Z,94
2023-03-04T02:00:32.609Z,94
2023-03-04T02:01:05.149Z,94
2023-03-04T02:01:36.389Z,94
2023-03-04T02:02:08.248Z,94
2023-03-04T02:02:36.552Z,94
2023-03-04T02:02:56.482Z,94
2023-03-04T02:03:28.422Z,94
2023-03-04T02:04:00.456Z,94
2023-03-04T02:04:32.711Z,94
2023-03-04T02:05:05.672Z,94
2023-03-04T02:05:36.446Z,94
2023-03-04T02:06:08.229Z,94
2023-03-04T02:06:36.549Z,94
2023-03-04T02:06:56.480Z,94
2023-03-04T02:07:28.573Z,94
2023-03-04T02:08:00.522Z,94
2023-03-04T02:08:32.832Z,94
2023-03-04T02:09:04.387Z,94
2023-03-04T02:09:36.394Z,94
2023-03-04T02:10:08.675Z,94
2023-03-04T02:10:36.520Z,94
2023-03-04T02:10:56.765Z,94
2023-03-04T02:11:28.880Z,94
2023-03-04T02:12:00.697Z,94
2023-03-04T02:12:32.587Z,94
2023-03-04T02:13:04.476Z,94
2023-03-04T02:13:36.317Z,94
2023-03-04T02:14:08.239Z,94
2023-03-04T02:14:36.456Z,94
2023-03-04T02:14:56.525Z,94
2023-03-04T02:15:29.524Z,94
2023-03-04T02:16:00.513Z,94
2023-03-04T02:16:33.143Z,94
2023-03-04T02:17:04.473Z,94
2023-03-04T02:17:36.941Z,94
2023-03-04T02:18:08.408Z,94
2023-03-04T02:18:36.883Z,94
2023-03-04T02:18:56.507Z,94
2023-03-04T02:19:28.503Z,94
2023-03-04T02:20:00.993Z,93
2023-03-04T02:20:33.239Z,93
2023-03-04T02:21:04.486Z,93
2023-03-04T02:21:36.314Z,93
2023-03-04T02:22:08.279Z,93
2023-03-04T02:22:36.611Z,93
2023-03-04T02:22:56.494Z,93
2023-03-04T02:23:28.489Z,93
2023-03-04T02:24:00.424Z,93
2023-03-04T02:24:32.556Z,93
2023-03-04T02:25:05.605Z,93
2023-03-04T02:25:36.472Z,93
2023-03-04T02:26:08.325Z,93
2023-03-04T02:26:36.729Z,93
2023-03-04T02:26:56.797Z,93
2023-03-04T02:27:28.744Z,93
2023-03-04T02:28:00.432Z,93
2023-03-04T02:28:32.609Z,93
2023-03-04T02:29:04.646Z,93
2023-03-04T02:29:36.984Z,93
2023-03-04T02:30:09.091Z,93
2023-03-04T02:30:36.932Z,93
2023-03-04T02:30:57.307Z,93
2023-03-04T02:31:28.496Z,93
2023-03-04T02:32:00.603Z,93
2023-03-04T02:32:32.648Z,93
2023-03-04T02:33:04.458Z,93
2023-03-04T02:33:36.992Z,93
2023-03-04T02:34:08.297Z,93
2023-03-04T02:34:36.816Z,93
2023-03-04T02:34:56.613Z,93
2023-03-04T02:35:29.375Z,93
2023-03-04T02:36:00.554Z,93
2023-03-04T02:36:32.807Z,93
2023-03-04T02:37:04.515Z,93
2023-03-04T02:37:36.425Z,93
2023-03-04T02:38:08.258Z,93
2023-03-04T02:38:37.259Z,93
2023-03-04T02:38:56.511Z,93
2023-03-04T02:39:28.548Z,93
2023-03-04T02:40:01.305Z,93
2023-03-04T02:40:34.508Z,93
2023-03-04T02:41:04.487Z,93
2023-03-04T02:41:36.314Z,93
2023-03-04T02:42:08.198Z,93
2023-03-04T02:42:36.577Z,92
2023-03-04T02:42:56.610Z,92
2023-03-04T02:43:28.410Z,92
2023-03-04T02:44:00.252Z,92
2023-03-04T02:44:32.547Z,92
2023-03-04T02:45:06.405Z,92
2023-03-04T02:45:36.494Z,92
2023-03-04T02:46:08.418Z,92
2023-03-04T02:46:36.941Z,92
2023-03-04T02:46:56.528Z,92
2023-03-04T02:47:28.499Z,92
2023-03-04T02:48:00.337Z,92
2023-03-04T02:48:32.639Z,92
2023-03-04T02:49:04.435Z,92
2023-03-04T02:49:36.555Z,92
2023-03-04T02:50:08.758Z,92
2023-03-04T02:50:36.554Z,92
2023-03-04T02:50:56.922Z,92
2023-03-04T02:51:28.531Z,92
2023-03-04T02:52:00.934Z,92
2023-03-04T02:52:32.548Z,92
2023-03-04T02:53:04.440Z,92
2023-03-04T02:53:36.559Z,92
2023-03-04T02:54:08.321Z,92
2023-03-04T02:54:36.496Z,92
2023-03-04T02:54:56.639Z,91
2023-03-04T02:55:28.857Z,91
2023-03-04T02:56:00.348Z,91
2023-03-04T02:56:32.517Z,91
2023-03-04T02:57:04.459Z,91
2023-03-04T02:57:36.465Z,91
2023-03-04T02:58:08.264Z,91
2023-03-04T02:58:37.285Z,91
2023-03-04T02:58:56.471Z,91
2023-03-04T02:59:28.594Z,91
2023-03-04T03:00:01.423Z,91
2023-03-04T03:00:32.657Z,91
2023-03-04T03:01:05.211Z,91
2023-03-04T03:01:36.853Z,90
2023-03-04T03:02:08.517Z,91
2023-03-04T03:02:36.780Z,90
2023-03-04T03:02:56.522Z,90
2023-03-04T03:03:28.505Z,90
2023-03-04T03:04:00.406Z,90
2023-03-04T03:04:32.626Z,90
2023-03-04T03:05:05.558Z,90
2023-03-04T03:05:36.919Z,90
2023-03-04T03:06:08.364Z,90
2023-03-04T03:06:36.709Z,90
2023-03-04T03:06:56.897Z,90
2023-03-04T03:07:28.556Z,90
2023-03-04T03:08:00.625Z,90
2023-03-04T03:08:32.712Z,90
2023-03-04T03:09:04.503Z,90
2023-03-04T03:09:36.359Z,90
2023-03-04T03:10:08.767Z,90
2023-03-04T03:10:36.471Z,90
2023-03-04T03:10:57.040Z,90
2023-03-04T03:11:28.491Z,90
2023-03-04T03:12:00.276Z,90
2023-03-04T03:12:32.584Z,90
2023-03-04T03:13:04.462Z,90
2023-03-04T03:13:36.509Z,90
2023-03-04T03:14:08.386Z,90
2023-03-04T03:14:36.746Z,90
2023-03-04T03:14:56.513Z,90
2023-03-04T03:15:29.288Z,90
2023-03-04T03:16:00.457Z,90
2023-03-04T03:16:32.646Z,90
2023-03-04T03:17:04.503Z,90
2023-03-04T03:17:36.377Z,89
2023-03-04T03:18:08.448Z,89
2023-03-04T03:18:36.568Z,89
2023-03-04T03:18:56.553Z,89
2023-03-04T03:19:28.518Z,89
2023-03-04T03:20:00.738Z,89
2023-03-04T03:20:32.612Z,90
2023-03-04T03:21:04.601Z,90
2023-03-04T03:21:36.707Z,90
2023-03-04T03:22:08.417Z,90
2023-03-04T03:22:36.722Z,90
2023-03-04T03:22:56.755Z,90
2023-03-04T03:23:28.569Z,90
2023-03-04T03:24:00.416Z,90
2023-03-04T03:24:32.543Z,90
2023-03-04T03:25:05.667Z,90
2023-03-04T03:25:36.430Z,89
2023-03-04T03:26:08.485Z,89
2023-03-04T03:26:36.632Z,89
2023-03-04T03:26:56.618Z,89
2023-03-04T03:27:28.801Z,89
2023-03-04T03:28:00.426Z,89
2023-03-04T03:28:32.505Z,89
2023-03-04T03:29:04.525Z,89
2023-03-04T03:29:36.832Z,89
2023-03-04T03:30:09.182Z,89
2023-03-04T03:30:36.605Z,89
2023-03-04T03:30:56.809Z,89
2023-03-04T03:31:28.550Z,89
2023-03-04T03:32:01.094Z,89
2023-03-04T03:32:32.510Z,89
2023-03-04T03:33:04.555Z,89
2023-03-04T03:33:36.385Z,89
2023-03-04T03:34:08.364Z,89
2023-03-04T03:34:36.547Z,89
2023-03-04T03:34:56.507Z,89
2023-03-04T03:35:28.899Z,89
2023-03-04T03:36:00.607Z,89
2023-03-04T03:36:32.614Z,89
2023-03-04T03:37:04.695Z,89
2023-03-04T03:37:36.432Z,89
2023-03-04T03:38:08.442Z,89
2023-03-04T03:38:36.541Z,89
2023-03-04T03:38:56.405Z,89
2023-03-04T03:39:28.610Z,89
2023-03-04T03:40:00.910Z,89
2023-03-04T03:40:32.489Z,89
2023-03-04T03:41:04.855Z,89
2023-03-04T03:41:36.381Z,89
2023-03-04T03:42:08.343Z,89
2023-03-04T03:42:36.479Z,89
2023-03-04T03:42:56.553Z,89
2023-03-04T03:43:28.581Z,89
2023-03-04T03:44:00.385Z,89
2023-03-04T03:44:32.665Z,89
2023-03-04T03:45:06.469Z,89
2023-03-04T03:45:36.928Z,89
2023-03-04T03:46:09.052Z,89
2023-03-04T03:46:36.662Z,89
2023-03-04T03:46:56.531Z,89
2023-03-04T03:47:28.510Z,89
2023-03-04T03:48:00.402Z,89
2023-03-04T03:48:32.521Z,89
2023-03-04T03:49:04.585Z,89
2023-03-04T03:49:36.482Z,89
2023-03-04T03:50:09.088Z,89
2023-03-04T03:50:36.544Z,89
2023-03-04T03:50:56.759Z,89
2023-03-04T03:51:28.472Z,89
2023-03-04T03:52:00.394Z,89
2023-03-04T03:52:32.516Z,89
2023-03-04T03:53:04.550Z,89
2023-03-04T03:53:37.037Z,89
2023-03-04T03:54:08.577Z,89
2023-03-04T03:54:36.950Z,89
2023-03-04T03:54:56.422Z,89
2023-03-04T03:55:28.938Z,89
2023-03-04T03:56:00.369Z,89
2023-03-04T03:56:32.639Z,89
2023-03-04T03:57:04.613Z,89
2023-03-04T03:57:36.469Z,89
2023-03-04T03:58:08.471Z,89
2023-03-04T03:58:36.771Z,89
2023-03-04T03:58:56.430Z,89
2023-03-04T03:59:28.646Z,89
2023-03-04T04:00:01.466Z,89
2023-03-04T04:00:32.646Z,89
2023-03-04T04:01:05.386Z,89
2023-03-04T04:01:36.561Z,89
2023-03-04T04:02:08.478Z,88
2023-03-04T04:02:36.742Z,89
2023-03-04T04:02:56.678Z,88
2023-03-04T04:03:28.590Z,89
2023-03-04T04:04:00.678Z,88
2023-03-04T04:04:32.589Z,88
2023-03-04T04:05:05.667Z,88
2023-03-04T04:05:36.482Z,89
2023-03-04T04:06:08.375Z,88
2023-03-04T04:06:36.603Z,88
2023-03-04T04:06:56.582Z,88
2023-03-04T04:07:28.552Z,88
2023-03-04T04:08:00.414Z,89
2023-03-04T04:08:32.519Z,89
2023-03-04T04:09:04.610Z,88
2023-03-04T04:09:36.348Z,88
2023-03-04T04:10:09.036Z,88
2023-03-04T04:10:36.509Z,88
2023-03-04T04:10:56.796Z,88
2023-03-04T04:11:28.547Z,88
2023-03-04T04:12:00.360Z,88
2023-03-04T04:12:32.660Z,88
2023-03-04T04:13:04.510Z,89
2023-03-04T04:13:39.206Z,88
2023-03-04T04:14:08.323Z,88
2023-03-04T04:14:36.815Z,88
2023-03-04T04:14:56.564Z,88
2023-03-04T04:15:29.272Z,88
2023-03-04T04:16:00.429Z,88
2023-03-04T04:16:32.664Z,88
2023-03-04T04:17:04.611Z,88
2023-03-04T04:17:36.362Z,88
2023-03-04T04:18:08.348Z,88
2023-03-04T04:18:36.567Z,88
2023-03-04T04:18:56.651Z,88
2023-03-04T04:19:28.576Z,88
2023-03-04T04:20:00.950Z,88
2023-03-04T04:20:32.570Z,88
2023-03-04T04:21:04.605Z,88
2023-03-04T04:21:36.353Z,88
2023-03-04T04:22:08.491Z,88
2023-03-04T04:22:36.553Z,88
2023-03-04T04:22:56.563Z,88
2023-03-04T04:23:28.531Z,88
2023-03-04T04:24:00.628Z,88
2023-03-04T04:24:32.616Z,88
2023-03-04T04:25:05.575Z,88
2023-03-04T04:25:36.631Z,88
2023-03-04T04:26:08.504Z,88
2023-03-04T04:26:36.500Z,88
2023-03-04T04:26:56.460Z,89
2023-03-04T04:27:29.105Z,88
2023-03-04T04:28:00.593Z,88
2023-03-04T04:28:32.679Z,88
2023-03-04T04:29:04.659Z,88
2023-03-04T04:29:36.364Z,88
2023-03-04T04:30:09.256Z,88
2023-03-04T04:30:36.702Z,88
2023-03-04T04:30:57.020Z,88
2023-03-04T04:31:29.033Z,88
2023-03-04T04:32:00.357Z,88
2023-03-04T04:32:32.615Z,88
2023-03-04T04:33:04.690Z,88
2023-03-04T04:33:36.389Z,88
2023-03-04T04:34:08.466Z,88
2023-03-04T04:34:36.488Z,88
2023-03-04T04:34:56.438Z,88
2023-03-04T04:35:29.019Z,88
2023-03-04T04:36:00.585Z,88
2023-03-04T04:36:33.353Z,88
2023-03-04T04:37:04.678Z,88
2023-03-04T04:37:36.639Z,88
2023-03-04T04:38:08.425Z,88
2023-03-04T04:38:37.010Z,88
2023-03-04T04:38:56.425Z,88
2023-03-04T04:39:28.579Z,88
2023-03-04T04:40:01.098Z,88
2023-03-04T04:40:33.279Z,88
2023-03-04T04:41:04.737Z,88
2023-03-04T04:41:36.494Z,87
2023-03-04T04:42:08.339Z,87
2023-03-04T04:42:36.773Z,87
2023-03-04T04:42:56.585Z,87
2023-03-04T04:43:28.558Z,87
2023-03-04T04:44:00.424Z,87
2023-03-04T04:44:32.524Z,87
2023-03-04T04:45:06.285Z,87
2023-03-04T04:45:37.422Z,87
2023-03-04T04:46:08.473Z,87
2023-03-04T04:46:37.133Z,87
2023-03-04T04:46:56.433Z,87
2023-03-04T04:47:28.755Z,87
2023-03-04T04:48:00.453Z,87
2023-03-04T04:48:32.729Z,87
2023-03-04T04:49:04.654Z,87
2023-03-04T04:49:36.627Z,87
2023-03-04T04:50:08.776Z,87
2023-03-04T04:50:36.522Z,87
2023-03-04T04:50:57.310Z,87
2023-03-04T04:51:28.551Z,87
2023-03-04T04:52:00.443Z,87
2023-03-04T04:52:32.574Z,87
2023-03-04T04:53:04.695Z,87
2023-03-04T04:53:36.405Z,87
2023-03-04T04:54:08.419Z,87
2023-03-04T04:54:36.771Z,87
2023-03-04T04:54:56.407Z,87
2023-03-04T04:55:28.961Z,87
2023-03-04T04:56:00.364Z,87
2023-03-04T04:56:32.498Z,87
2023-03-04T04:57:04.703Z,87
2023-03-04T04:57:36.374Z,87
2023-03-04T04:58:08.351Z,87
2023-03-04T04:58:36.453Z,87
2023-03-04T04:58:56.488Z,87
2023-03-04T04:59:28.790Z,87
2023-03-04T05:00:01.506Z,87
2023-03-04T05:00:32.830Z,87
2023-03-04T05:01:05.652Z,87
2023-03-04T05:01:36.542Z,87
2023-03-04T05:02:08.934Z,87
2023-03-04T05:02:36.597Z,87
2023-03-04T05:02:56.691Z,87
2023-03-04T05:03:28.575Z,87
2023-03-04T05:04:00.677Z,87
2023-03-04T05:04:32.589Z,87
2023-03-04T05:05:05.668Z,87
2023-03-04T05:05:36.887Z,86
2023-03-04T05:06:08.620Z,87
2023-03-04T05:06:36.557Z,87
2023-03-04T05:06:56.482Z,87
2023-03-04T05:07:28.652Z,87
2023-03-04T05:08:00.591Z,86
2023-03-04T05:08:32.575Z,86
2023-03-04T05:09:04.595Z,86
2023-03-04T05:09:36.454Z,86
2023-03-04T05:10:08.808Z,86
2023-03-04T05:10:36.534Z,86
2023-03-04T05:10:57.174Z,86
2023-03-04T05:11:28.733Z,87
2023-03-04T05:12:00.410Z,86
2023-03-04T05:12:32.688Z,87
2023-03-04T05:13:04.578Z,87
2023-03-04T05:13:36.577Z,87
2023-03-04T05:14:08.410Z,86
2023-03-04T05:14:36.807Z,86
2023-03-04T05:14:56.622Z,86
2023-03-04T05:15:29.406Z,86
2023-03-04T05:16:01.216Z,86
2023-03-04T05:16:32.567Z,86
2023-03-04T05:17:04.684Z,86
2023-03-04T05:17:36.823Z,86
2023-03-04T05:18:08.416Z,86
2023-03-04T05:18:36.522Z,86
2023-03-04T05:18:56.658Z,86
2023-03-04T05:19:28.680Z,86
2023-03-04T05:20:01.139Z,86
2023-03-04T05:20:32.650Z,86
2023-03-04T05:21:04.802Z,86
2023-03-04T05:21:36.630Z,86
2023-03-04T05:22:08.654Z,86
2023-03-04T05:22:36.573Z,86
2023-03-04T05:22:56.715Z,86
2023-03-04T05:23:28.819Z,86
2023-03-04T05:24:00.379Z,86
2023-03-04T05:24:32.727Z,86
2023-03-04T05:25:05.775Z,86
2023-03-04T05:25:36.811Z,86
2023-03-04T05:26:08.590Z,86
2023-03-04T05:26:36.553Z,86
2023-03-04T05:26:56.710Z,86
2023-03-04T05:27:28.980Z,86
2023-03-04T05:28:00.536Z,86
2023-03-04T05:28:32.603Z,86
2023-03-04T05:29:04.641Z,86
2023-03-04T05:29:36.473Z,86
2023-03-04T05:30:09.241Z,86
2023-03-04T05:30:36.615Z,86
2023-03-04T05:30:57.534Z,86
2023-03-04T05:31:28.626Z,86
2023-03-04T05:32:00.624Z,86
2023-03-04T05:32:32.791Z,86
2023-03-04T05:33:04.609Z,86
2023-03-04T05:33:36.471Z,86
2023-03-04T05:34:08.455Z,86
2023-03-04T05:34:36.709Z,86
2023-03-04T05:34:56.641Z,86
2023-03-04T05:35:29.262Z,86
2023-03-04T05:36:00.927Z,86
2023-03-04T05:36:32.731Z,86
2023-03-04T05:37:05.747Z,86
2023-03-04T05:37:36.447Z,86
2023-03-04T05:38:08.869Z,86
2023-03-04T05:38:36.564Z,86
2023-03-04T05:38:56.696Z,86
2023-03-04T05:39:28.726Z,86
2023-03-04T05:40:01.369Z,86
2023-03-04T05:40:33.310Z,86
2023-03-04T05:41:04.703Z,86
2023-03-04T05:41:36.629Z,86
2023-03-04T05:42:08.845Z,86
2023-03-04T05:42:36.594Z,86
2023-03-04T05:42:56.748Z,86
2023-03-04T05:43:28.637Z,86
2023-03-04T05:44:00.499Z,86
2023-03-04T05:44:32.639Z,86
2023-03-04T05:45:06.576Z,86
2023-03-04T05:45:36.583Z,86
2023-03-04T05:46:08.581Z,86
2023-03-04T05:46:36.683Z,86
2023-03-04T05:46:56.643Z,86
2023-03-04T05:47:28.763Z,86
2023-03-04T05:48:00.654Z,86
2023-03-04T05:48:32.627Z,86
2023-03-04T05:49:04.663Z,86
2023-03-04T05:49:36.495Z,86
2023-03-04T05:50:09.170Z,86
2023-03-04T05:50:36.634Z,86
2023-03-04T05:50:57.333Z,86
2023-03-04T05:51:28.576Z,86
2023-03-04T05:52:00.492Z,86
2023-03-04T05:52:32.649Z,86
2023-03-04T05:53:04.593Z,86
2023-03-04T05:53:36.550Z,86
2023-03-04T05:54:08.484Z,86
2023-03-04T05:54:36.645Z,86
2023-03-04T05:54:56.516Z,86
2023-03-04T05:55:28.958Z,86
2023-03-04T05:56:00.597Z,86
2023-03-04T05:56:32.599Z,86
2023-03-04T05:57:04.606Z,86
2023-03-04T05:57:36.787Z,86
2023-03-04T05:58:08.572Z,86
2023-03-04T05:58:36.670Z,86
2023-03-04T05:58:56.590Z,86
2023-03-04T05:59:28.765Z,86
2023-03-04T06:00:01.589Z,86
2023-03-04T06:00:32.993Z,86
2023-03-04T06:01:05.415Z,86
2023-03-04T06:01:36.529Z,86
2023-03-04T06:02:08.702Z,86
2023-03-04T06:02:36.883Z,86
2023-03-04T06:02:57.079Z,86
2023-03-04T06:03:29.194Z,86
2023-03-04T06:04:00.719Z,86
2023-03-04T06:04:32.789Z,86
2023-03-04T06:05:05.934Z,86
2023-03-04T06:05:36.667Z,86
2023-03-04T06:06:08.695Z,86
2023-03-04T06:06:36.709Z,86
2023-03-04T06:06:56.940Z,86
2023-03-04T06:07:28.833Z,86
2023-03-04T06:08:00.963Z,86
2023-03-04T06:08:32.916Z,86
2023-03-04T06:09:04.832Z,86
2023-03-04T06:09:37.134Z,86
2023-03-04T06:10:09.120Z,86
2023-03-04T06:10:36.762Z,86
2023-03-04T06:10:57.991Z,86
2023-03-04T06:11:28.854Z,86
2023-03-04T06:12:00.698Z,86
2023-03-04T06:12:32.901Z,86
2023-03-04T06:13:04.826Z,86
2023-03-04T06:13:36.798Z,86
2023-03-04T06:14:08.817Z,86
2023-03-04T06:14:36.868Z,86
2023-03-04T06:14:56.803Z,86
2023-03-04T06:15:29.588Z,86
2023-03-04T06:16:00.857Z,86
2023-03-04T06:16:33.039Z,86
2023-03-04T06:17:04.815Z,86
2023-03-04T06:17:36.733Z,86
2023-03-04T06:18:08.694Z,86
2023-03-04T06:18:36.744Z,86
2023-03-04T06:18:56.759Z,86
2023-03-04T06:19:28.841Z,86
2023-03-04T06:20:01.200Z,86
2023-03-04T06:20:32.948Z,86
2023-03-04T06:21:04.773Z,86
2023-03-04T06:21:36.730Z,86
2023-03-04T06:22:08.746Z,86
2023-03-04T06:22:36.669Z,86
2023-03-04T06:22:56.935Z,86
2023-03-04T06:23:29.011Z,86
2023-03-04T06:24:00.738Z,86
2023-03-04T06:24:32.876Z,86
2023-03-04T06:25:06.035Z,86
2023-03-04T06:25:36.636Z,86
2023-03-04T06:26:08.769Z,86
2023-03-04T06:26:36.810Z,86
2023-03-04T06:26:57.038Z,86
2023-03-04T06:27:29.063Z,86
2023-03-04T06:28:00.690Z,86
2023-03-04T06:28:32.816Z,86
2023-03-04T06:29:04.898Z,86
2023-03-04T06:29:36.740Z,86
2023-03-04T06:30:09.646Z,86
2023-03-04T06:30:37.205Z,86
2023-03-04T06:30:57.676Z,86
2023-03-04T06:31:29.028Z,86
2023-03-04T06:32:00.755Z,86
2023-03-04T06:32:32.937Z,87
2023-03-04T06:33:04.828Z,87
2023-03-04T06:33:36.659Z,87
2023-03-04T06:34:08.775Z,87
2023-03-04T06:34:36.741Z,87
2023-03-04T06:34:56.892Z,87
2023-03-04T06:35:29.674Z,87
2023-03-04T06:36:00.847Z,87
2023-03-04T06:36:32.873Z,87
2023-03-04T06:37:04.870Z,87
2023-03-04T06:37:37.794Z,87
2023-03-04T06:38:08.728Z,87
2023-03-04T06:38:37.173Z,87
2023-03-04T06:38:56.760Z,87
2023-03-04T06:39:28.903Z,87
2023-03-04T06:40:01.200Z,87
2023-03-04T06:40:33.420Z,87
2023-03-04T06:41:04.916Z,87
2023-03-04T06:41:36.702Z,87
2023-03-04T06:42:08.800Z,87
2023-03-04T06:42:36.757Z,87
2023-03-04T06:42:56.876Z,87
2023-03-04T06:43:28.801Z,87
2023-03-04T06:44:00.798Z,87
2023-03-04T06:44:33.154Z,87
2023-03-04T06:45:06.383Z,87
2023-03-04T06:45:37.102Z,87
2023-03-04T06:46:08.685Z,87
2023-03-04T06:46:36.900Z,87
2023-03-04T06:46:56.821Z,87
2023-03-04T06:47:28.897Z,87
2023-03-04T06:48:00.832Z,86
2023-03-04T06:48:32.846Z,87
2023-03-04T06:49:04.879Z,87
2023-03-04T06:49:37.793Z,87
2023-03-04T06:50:09.157Z,87
2023-03-04T06:50:37.187Z,87
2023-03-04T06:50:57.359Z,87
2023-03-04T06:51:28.778Z,86
2023-03-04T06:52:00.893Z,86
2023-03-04T06:52:32.885Z,87
2023-03-04T06:53:04.840Z,87
2023-03-04T06:53:36.722Z,87
2023-03-04T06:54:09.158Z,87
2023-03-04T06:54:36.883Z,87
2023-03-04T06:54:56.827Z,87
2023-03-04T06:55:29.298Z,87
2023-03-04T06:56:00.684Z,86
2023-03-04T06:56:33.321Z,87
2023-03-04T06:57:04.878Z,86
2023-03-04T06:57:36.941Z,87
2023-03-04T06:58:08.804Z,87
2023-03-04T06:58:37.157Z,86
2023-03-04T06:58:56.836Z,86
2023-03-04T06:59:28.877Z,86
2023-03-04T07:00:02.851Z,86
2023-03-04T07:00:33.017Z,86
2023-03-04T07:01:05.569Z,86
2023-03-04T07:01:37.658Z,86
2023-03-04T07:02:08.785Z,86
2023-03-04T07:02:36.783Z,86
2023-03-04T07:02:56.949Z,86
2023-03-04T07:03:28.781Z,86
2023-03-04T07:04:00.728Z,86
2023-03-04T07:04:32.872Z,86
2023-03-04T07:05:06.041Z,86
2023-03-04T07:05:36.791Z,86
2023-03-04T07:06:08.993Z,86
2023-03-04T07:06:36.776Z,86
2023-03-04T07:06:57.085Z,86
2023-03-04T07:07:28.754Z,86